In Rescue
 
Open Full Screen Window  High Contrast Mode
August 20, 2019 4:40 AM PDT
Weather Information
Wind Direction
  ---
Wind Speed
  00 kt (0 mph)
Wind Gust
  00 kt (0 mph)
Altimeter
29.94 in
Visibility
10 SM
Temperature
18° C
64° F
Dewpoint
11° C
52° F
Humidity
64%
1hr Rain Fall
00.00 in.
24hr Rain Fall
00.00 in.
Sky Condition
Clear
VFR

METAR KSBD 201140Z AUTO 00000KT 10SM CLR 18/11 A2994 RMK AO2 T01820112

FAA Disclaimer: The data displayed is for advisory purposes only and is not to be used for flight planning or operations.